sensor_id;sensor_type;location;lat;lon;timestamp;temperature;humidity
74458;SHT31;62896;51.032;3.712;2023-08-07T00:01:28;12.7;87
74458;SHT31;62896;51.032;3.712;2023-08-07T00:04:48;12.8;86
74458;SHT31;62896;51.032;3.712;2023-08-07T00:08:08;12.8;86
74458;SHT31;62896;51.032;3.712;2023-08-07T00:11:28;12.8;86
74458;SHT31;62896;51.032;3.712;2023-08-07T00:14:49;12.8;84
74458;SHT31;62896;51.032;3.712;2023-08-07T00:18:08;12.8;84
74458;SHT31;62896;51.032;3.712;2023-08-07T00:21:28;12.8;84
74458;SHT31;62896;51.032;3.712;2023-08-07T00:24:48;12.6;85
74458;SHT31;62896;51.032;3.712;2023-08-07T00:28:08;12.6;85
74458;SHT31;62896;51.032;3.712;2023-08-07T00:31:28;12.6;85
74458;SHT31;62896;51.032;3.712;2023-08-07T00:34:48;12.5;85
74458;SHT31;62896;51.032;3.712;2023-08-07T00:38:08;12.5;85
74458;SHT31;62896;51.032;3.712;2023-08-07T00:41:28;12.5;85
74458;SHT31;62896;51.032;3.712;2023-08-07T00:44:48;12.3;86
74458;SHT31;62896;51.032;3.712;2023-08-07T00:48:08;12.3;86
74458;SHT31;62896;51.032;3.712;2023-08-07T00:51:28;12.3;86
74458;SHT31;62896;51.032;3.712;2023-08-07T00:54:48;12.2;86
74458;SHT31;62896;51.032;3.712;2023-08-07T00:58:08;12.2;86
74458;SHT31;62896;51.032;3.712;2023-08-07T01:01:28;12.2;86
74458;SHT31;62896;51.032;3.712;2023-08-07T01:04:48;12.1;86
74458;SHT31;62896;51.032;3.712;2023-08-07T01:08:08;12.1;86
74458;SHT31;62896;51.032;3.712;2023-08-07T01:11:30;12.1;86
74458;SHT31;62896;51.032;3.712;2023-08-07T01:14:49;12.1;85
74458;SHT31;62896;51.032;3.712;2023-08-07T01:18:08;12.1;85
74458;SHT31;62896;51.032;3.712;2023-08-07T01:21:28;12.1;85
74458;SHT31;62896;51.032;3.712;2023-08-07T01:24:49;12.1;85
74458;SHT31;62896;51.032;3.712;2023-08-07T01:28:11;12.1;85
74458;SHT31;62896;51.032;3.712;2023-08-07T01:31:28;12.1;85
74458;SHT31;62896;51.032;3.712;2023-08-07T01:34:48;12;85
74458;SHT31;62896;51.032;3.712;2023-08-07T01:38:08;12;85
74458;SHT31;62896;51.032;3.712;2023-08-07T01:41:28;12;85
74458;SHT31;62896;51.032;3.712;2023-08-07T01:44:48;12;85
74458;SHT31;62896;51.032;3.712;2023-08-07T01:48:08;12;85
74458;SHT31;62896;51.032;3.712;2023-08-07T01:51:28;12;85
74458;SHT31;62896;51.032;3.712;2023-08-07T01:54:48;11.9;85
74458;SHT31;62896;51.032;3.712;2023-08-07T01:58:08;11.9;85
74458;SHT31;62896;51.032;3.712;2023-08-07T02:01:28;11.9;85
74458;SHT31;62896;51.032;3.712;2023-08-07T02:04:48;11.9;85
74458;SHT31;62896;51.032;3.712;2023-08-07T02:08:08;11.9;85
74458;SHT31;62896;51.032;3.712;2023-08-07T02:11:28;11.9;85
74458;SHT31;62896;51.032;3.712;2023-08-07T02:14:48;11.9;86
74458;SHT31;62896;51.032;3.712;2023-08-07T02:18:08;11.9;86
74458;SHT31;62896;51.032;3.712;2023-08-07T02:21:28;11.9;86
74458;SHT31;62896;51.032;3.712;2023-08-07T02:24:48;12;86
74458;SHT31;62896;51.032;3.712;2023-08-07T02:28:08;12;86
74458;SHT31;62896;51.032;3.712;2023-08-07T02:31:28;12;86
74458;SHT31;62896;51.032;3.712;2023-08-07T02:34:48;12;86
74458;SHT31;62896;51.032;3.712;2023-08-07T02:38:08;12;86
74458;SHT31;62896;51.032;3.712;2023-08-07T02:41:28;12;86
74458;SHT31;62896;51.032;3.712;2023-08-07T02:44:48;12;86
74458;SHT31;62896;51.032;3.712;2023-08-07T02:48:08;12;86
74458;SHT31;62896;51.032;3.712;2023-08-07T02:51:28;12;86
74458;SHT31;62896;51.032;3.712;2023-08-07T02:54:48;12;86
74458;SHT31;62896;51.032;3.712;2023-08-07T02:58:08;12;86
74458;SHT31;62896;51.032;3.712;2023-08-07T03:01:28;12;86
74458;SHT31;62896;51.032;3.712;2023-08-07T03:04:48;12;86
74458;SHT31;62896;51.032;3.712;2023-08-07T03:08:08;12;86
74458;SHT31;62896;51.032;3.712;2023-08-07T03:11:28;12;86
74458;SHT31;62896;51.032;3.712;2023-08-07T03:14:48;11.9;87
74458;SHT31;62896;51.032;3.712;2023-08-07T03:18:08;11.9;87
74458;SHT31;62896;51.032;3.712;2023-08-07T03:21:28;11.9;87
74458;SHT31;62896;51.032;3.712;2023-08-07T03:24:48;11.8;87
74458;SHT31;62896;51.032;3.712;2023-08-07T03:28:08;11.8;87
74458;SHT31;62896;51.032;3.712;2023-08-07T03:31:28;11.8;87
74458;SHT31;62896;51.032;3.712;2023-08-07T03:34:48;11.8;87
74458;SHT31;62896;51.032;3.712;2023-08-07T03:38:08;11.8;87
74458;SHT31;62896;51.032;3.712;2023-08-07T03:41:28;11.8;87
74458;SHT31;62896;51.032;3.712;2023-08-07T03:44:48;11.8;87
74458;SHT31;62896;51.032;3.712;2023-08-07T03:48:08;11.8;87
74458;SHT31;62896;51.032;3.712;2023-08-07T03:51:28;11.8;87
74458;SHT31;62896;51.032;3.712;2023-08-07T03:54:48;11.8;88
74458;SHT31;62896;51.032;3.712;2023-08-07T03:58:08;11.8;88
74458;SHT31;62896;51.032;3.712;2023-08-07T04:01:28;11.8;88
74458;SHT31;62896;51.032;3.712;2023-08-07T04:04:48;11.7;88
74458;SHT31;62896;51.032;3.712;2023-08-07T04:08:08;11.7;88
74458;SHT31;62896;51.032;3.712;2023-08-07T04:11:28;11.7;88
74458;SHT31;62896;51.032;3.712;2023-08-07T04:14:48;11.7;88
74458;SHT31;62896;51.032;3.712;2023-08-07T04:18:08;11.7;88
74458;SHT31;62896;51.032;3.712;2023-08-07T04:21:29;11.7;88
74458;SHT31;62896;51.032;3.712;2023-08-07T04:24:48;11.7;89
74458;SHT31;62896;51.032;3.712;2023-08-07T04:28:08;11.7;89
74458;SHT31;62896;51.032;3.712;2023-08-07T04:31:28;11.7;89
74458;SHT31;62896;51.032;3.712;2023-08-07T04:34:48;11.8;89
74458;SHT31;62896;51.032;3.712;2023-08-07T04:38:08;11.8;89
74458;SHT31;62896;51.032;3.712;2023-08-07T04:41:28;11.8;89
74458;SHT31;62896;51.032;3.712;2023-08-07T04:44:48;11.8;89
74458;SHT31;62896;51.032;3.712;2023-08-07T04:48:08;11.8;89
74458;SHT31;62896;51.032;3.712;2023-08-07T04:51:28;11.8;89
74458;SHT31;62896;51.032;3.712;2023-08-07T04:54:48;11.9;89
74458;SHT31;62896;51.032;3.712;2023-08-07T04:58:08;11.9;89
74458;SHT31;62896;51.032;3.712;2023-08-07T05:01:28;11.9;89
74458;SHT31;62896;51.032;3.712;2023-08-07T05:04:48;12;88
74458;SHT31;62896;51.032;3.712;2023-08-07T05:08:08;12;88
74458;SHT31;62896;51.032;3.712;2023-08-07T05:11:28;12;88
74458;SHT31;62896;51.032;3.712;2023-08-07T05:14:48;12.2;88
74458;SHT31;62896;51.032;3.712;2023-08-07T05:18:08;12.2;88
74458;SHT31;62896;51.032;3.712;2023-08-07T05:21:28;12.2;88
74458;SHT31;62896;51.032;3.712;2023-08-07T05:24:48;12.3;88
74458;SHT31;62896;51.032;3.712;2023-08-07T05:28:08;12.3;88
74458;SHT31;62896;51.032;3.712;2023-08-07T05:31:28;12.3;88
74458;SHT31;62896;51.032;3.712;2023-08-07T05:34:48;12.6;88
74458;SHT31;62896;51.032;3.712;2023-08-07T05:38:08;12.6;88
74458;SHT31;62896;51.032;3.712;2023-08-07T05:41:28;12.6;88
74458;SHT31;62896;51.032;3.712;2023-08-07T05:44:48;12.8;88
74458;SHT31;62896;51.032;3.712;2023-08-07T05:48:08;12.8;88
74458;SHT31;62896;51.032;3.712;2023-08-07T05:51:28;12.8;88
74458;SHT31;62896;51.032;3.712;2023-08-07T05:54:48;13.1;87
74458;SHT31;62896;51.032;3.712;2023-08-07T05:58:08;13.1;87
74458;SHT31;62896;51.032;3.712;2023-08-07T06:01:28;13.1;87
74458;SHT31;62896;51.032;3.712;2023-08-07T06:04:48;13.4;87
74458;SHT31;62896;51.032;3.712;2023-08-07T06:08:08;13.4;87
74458;SHT31;62896;51.032;3.712;2023-08-07T06:11:28;13.4;87
74458;SHT31;62896;51.032;3.712;2023-08-07T06:14:48;13.7;86
74458;SHT31;62896;51.032;3.712;2023-08-07T06:18:08;13.7;86
74458;SHT31;62896;51.032;3.712;2023-08-07T06:21:28;13.7;86
74458;SHT31;62896;51.032;3.712;2023-08-07T06:24:48;14;85
74458;SHT31;62896;51.032;3.712;2023-08-07T06:28:08;14;85
74458;SHT31;62896;51.032;3.712;2023-08-07T06:31:28;14;85
74458;SHT31;62896;51.032;3.712;2023-08-07T06:34:48;14.3;85
74458;SHT31;62896;51.032;3.712;2023-08-07T06:38:08;14.3;85
74458;SHT31;62896;51.032;3.712;2023-08-07T06:41:28;14.3;85
74458;SHT31;62896;51.032;3.712;2023-08-07T06:44:48;14.6;84
74458;SHT31;62896;51.032;3.712;2023-08-07T06:48:08;14.6;84
74458;SHT31;62896;51.032;3.712;2023-08-07T06:51:28;14.6;84
74458;SHT31;62896;51.032;3.712;2023-08-07T06:54:48;14.9;83
74458;SHT31;62896;51.032;3.712;2023-08-07T06:58:08;14.9;83
74458;SHT31;62896;51.032;3.712;2023-08-07T07:01:28;14.9;83
74458;SHT31;62896;51.032;3.712;2023-08-07T07:04:48;15.7;82
74458;SHT31;62896;51.032;3.712;2023-08-07T07:08:08;15.7;82
74458;SHT31;62896;51.032;3.712;2023-08-07T07:11:28;15.7;82
74458;SHT31;62896;51.032;3.712;2023-08-07T07:14:48;16.4;79
74458;SHT31;62896;51.032;3.712;2023-08-07T07:18:08;16.4;79
74458;SHT31;62896;51.032;3.712;2023-08-07T07:21:28;16.4;79
74458;SHT31;62896;51.032;3.712;2023-08-07T07:24:48;16.2;80
74458;SHT31;62896;51.032;3.712;2023-08-07T07:28:08;16.2;80
74458;SHT31;62896;51.032;3.712;2023-08-07T07:31:28;16.2;80
74458;SHT31;62896;51.032;3.712;2023-08-07T07:34:48;16.6;78
74458;SHT31;62896;51.032;3.712;2023-08-07T07:38:08;16.6;78
74458;SHT31;62896;51.032;3.712;2023-08-07T07:41:28;16.6;78
74458;SHT31;62896;51.032;3.712;2023-08-07T07:44:48;16.8;76
74458;SHT31;62896;51.032;3.712;2023-08-07T07:48:08;16.8;76
74458;SHT31;62896;51.032;3.712;2023-08-07T07:51:28;16.8;76
74458;SHT31;62896;51.032;3.712;2023-08-07T07:54:48;17;75
74458;SHT31;62896;51.032;3.712;2023-08-07T07:58:08;17;75
74458;SHT31;62896;51.032;3.712;2023-08-07T08:01:28;17;75
74458;SHT31;62896;51.032;3.712;2023-08-07T08:04:48;16.8;76
74458;SHT31;62896;51.032;3.712;2023-08-07T08:08:08;16.8;76
74458;SHT31;62896;51.032;3.712;2023-08-07T08:11:28;16.8;76
74458;SHT31;62896;51.032;3.712;2023-08-07T08:14:48;17.4;72
74458;SHT31;62896;51.032;3.712;2023-08-07T08:18:08;17.4;72
74458;SHT31;62896;51.032;3.712;2023-08-07T08:21:28;17.4;72
74458;SHT31;62896;51.032;3.712;2023-08-07T08:24:48;17.5;71
74458;SHT31;62896;51.032;3.712;2023-08-07T08:28:08;17.5;71
74458;SHT31;62896;51.032;3.712;2023-08-07T08:31:28;17.5;71
74458;SHT31;62896;51.032;3.712;2023-08-07T08:34:48;17.7;68
74458;SHT31;62896;51.032;3.712;2023-08-07T08:38:08;17.7;68
74458;SHT31;62896;51.032;3.712;2023-08-07T08:41:28;17.7;68
74458;SHT31;62896;51.032;3.712;2023-08-07T08:44:55;18.2;66
74458;SHT31;62896;51.032;3.712;2023-08-07T08:48:08;18.2;66
74458;SHT31;62896;51.032;3.712;2023-08-07T08:51:28;18.2;66
74458;SHT31;62896;51.032;3.712;2023-08-07T08:54:48;18.3;64
74458;SHT31;62896;51.032;3.712;2023-08-07T08:58:08;18.3;64
74458;SHT31;62896;51.032;3.712;2023-08-07T09:01:28;18.3;64
74458;SHT31;62896;51.032;3.712;2023-08-07T09:04:48;18.7;62
74458;SHT31;62896;51.032;3.712;2023-08-07T09:08:08;18.7;62
74458;SHT31;62896;51.032;3.712;2023-08-07T09:11:28;18.7;62
74458;SHT31;62896;51.032;3.712;2023-08-07T09:14:49;18.9;61
74458;SHT31;62896;51.032;3.712;2023-08-07T09:18:09;18.9;61
74458;SHT31;62896;51.032;3.712;2023-08-07T09:21:28;18.9;61
74458;SHT31;62896;51.032;3.712;2023-08-07T09:24:48;18.9;63
74458;SHT31;62896;51.032;3.712;2023-08-07T09:28:08;18.9;63
74458;SHT31;62896;51.032;3.712;2023-08-07T09:31:28;18.9;63
74458;SHT31;62896;51.032;3.712;2023-08-07T09:34:50;18.9;63
74458;SHT31;62896;51.032;3.712;2023-08-07T09:38:08;18.9;63
74458;SHT31;62896;51.032;3.712;2023-08-07T09:41:28;18.9;63
74458;SHT31;62896;51.032;3.712;2023-08-07T09:44:48;19.4;62
74458;SHT31;62896;51.032;3.712;2023-08-07T09:48:08;19.4;62
74458;SHT31;62896;51.032;3.712;2023-08-07T09:51:31;19.4;62
74458;SHT31;62896;51.032;3.712;2023-08-07T09:54:48;19.3;61
74458;SHT31;62896;51.032;3.712;2023-08-07T09:58:08;19.3;61
74458;SHT31;62896;51.032;3.712;2023-08-07T10:01:28;19.3;61
74458;SHT31;62896;51.032;3.712;2023-08-07T10:04:48;19.4;62
74458;SHT31;62896;51.032;3.712;2023-08-07T10:08:08;19.4;62
74458;SHT31;62896;51.032;3.712;2023-08-07T10:11:28;19.4;62
74458;SHT31;62896;51.032;3.712;2023-08-07T10:14:48;19.5;60
74458;SHT31;62896;51.032;3.712;2023-08-07T10:18:08;19.5;60
74458;SHT31;62896;51.032;3.712;2023-08-07T10:21:28;19.5;60
74458;SHT31;62896;51.032;3.712;2023-08-07T10:24:48;19.7;61
74458;SHT31;62896;51.032;3.712;2023-08-07T10:28:09;19.7;61
74458;SHT31;62896;51.032;3.712;2023-08-07T10:31:28;19.7;61
74458;SHT31;62896;51.032;3.712;2023-08-07T10:34:49;19.9;61
74458;SHT31;62896;51.032;3.712;2023-08-07T10:38:09;19.9;61
74458;SHT31;62896;51.032;3.712;2023-08-07T10:41:37;19.9;61
74458;SHT31;62896;51.032;3.712;2023-08-07T10:44:48;19.9;60
74458;SHT31;62896;51.032;3.712;2023-08-07T10:48:10;19.9;60
74458;SHT31;62896;51.032;3.712;2023-08-07T10:51:29;19.9;60
74458;SHT31;62896;51.032;3.712;2023-08-07T10:54:49;20;61
74458;SHT31;62896;51.032;3.712;2023-08-07T10:58:12;20;61
74458;SHT31;62896;51.032;3.712;2023-08-07T11:01:39;20;61
74458;SHT31;62896;51.032;3.712;2023-08-07T11:04:48;20.3;60
74458;SHT31;62896;51.032;3.712;2023-08-07T11:08:08;20.3;60
74458;SHT31;62896;51.032;3.712;2023-08-07T11:11:28;20.3;60
74458;SHT31;62896;51.032;3.712;2023-08-07T11:14:48;20.3;61
74458;SHT31;62896;51.032;3.712;2023-08-07T11:18:08;20.3;61
74458;SHT31;62896;51.032;3.712;2023-08-07T11:21:28;20.3;61
74458;SHT31;62896;51.032;3.712;2023-08-07T11:24:49;20;61
74458;SHT31;62896;51.032;3.712;2023-08-07T11:28:08;20;61
74458;SHT31;62896;51.032;3.712;2023-08-07T11:31:28;20;61
74458;SHT31;62896;51.032;3.712;2023-08-07T11:34:48;20.9;59
74458;SHT31;62896;51.032;3.712;2023-08-07T11:38:08;20.9;59
74458;SHT31;62896;51.032;3.712;2023-08-07T11:41:31;20.9;59
74458;SHT31;62896;51.032;3.712;2023-08-07T11:44:48;21;57
74458;SHT31;62896;51.032;3.712;2023-08-07T11:48:09;21;57
74458;SHT31;62896;51.032;3.712;2023-08-07T11:51:28;21;57
74458;SHT31;62896;51.032;3.712;2023-08-07T11:54:48;21.6;55
74458;SHT31;62896;51.032;3.712;2023-08-07T11:58:08;21.6;55
74458;SHT31;62896;51.032;3.712;2023-08-07T12:01:28;21.6;55
74458;SHT31;62896;51.032;3.712;2023-08-07T12:04:48;21.4;56
74458;SHT31;62896;51.032;3.712;2023-08-07T12:08:08;21.4;56
74458;SHT31;62896;51.032;3.712;2023-08-07T12:11:29;21.4;56
74458;SHT31;62896;51.032;3.712;2023-08-07T12:14:52;20.7;58
74458;SHT31;62896;51.032;3.712;2023-08-07T12:18:08;20.7;58
74458;SHT31;62896;51.032;3.712;2023-08-07T12:21:28;20.7;58
74458;SHT31;62896;51.032;3.712;2023-08-07T12:24:48;20.3;59
74458;SHT31;62896;51.032;3.712;2023-08-07T12:28:08;20.3;59
74458;SHT31;62896;51.032;3.712;2023-08-07T12:31:28;20.3;59
74458;SHT31;62896;51.032;3.712;2023-08-07T12:34:48;20.9;57
74458;SHT31;62896;51.032;3.712;2023-08-07T12:38:08;20.9;57
74458;SHT31;62896;51.032;3.712;2023-08-07T12:41:28;20.9;57
74458;SHT31;62896;51.032;3.712;2023-08-07T12:44:48;21.4;56
74458;SHT31;62896;51.032;3.712;2023-08-07T12:48:09;21.4;56
74458;SHT31;62896;51.032;3.712;2023-08-07T12:51:28;21.4;56
74458;SHT31;62896;51.032;3.712;2023-08-07T12:54:48;21;59
74458;SHT31;62896;51.032;3.712;2023-08-07T12:58:08;21;59
74458;SHT31;62896;51.032;3.712;2023-08-07T13:01:28;21;59
74458;SHT31;62896;51.032;3.712;2023-08-07T13:04:48;20.9;59
74458;SHT31;62896;51.032;3.712;2023-08-07T13:08:08;20.9;59
74458;SHT31;62896;51.032;3.712;2023-08-07T13:11:28;20.9;59
74458;SHT31;62896;51.032;3.712;2023-08-07T13:14:48;21.8;57
74458;SHT31;62896;51.032;3.712;2023-08-07T13:18:08;21.8;57
74458;SHT31;62896;51.032;3.712;2023-08-07T13:21:28;21.8;57
74458;SHT31;62896;51.032;3.712;2023-08-07T13:24:48;22.4;53
74458;SHT31;62896;51.032;3.712;2023-08-07T13:28:08;22.4;53
74458;SHT31;62896;51.032;3.712;2023-08-07T13:31:28;22.4;53
74458;SHT31;62896;51.032;3.712;2023-08-07T13:34:48;23;52
74458;SHT31;62896;51.032;3.712;2023-08-07T13:38:08;23;52
74458;SHT31;62896;51.032;3.712;2023-08-07T13:41:29;23;52
74458;SHT31;62896;51.032;3.712;2023-08-07T13:44:48;22.5;54
74458;SHT31;62896;51.032;3.712;2023-08-07T13:48:08;22.5;54
74458;SHT31;62896;51.032;3.712;2023-08-07T13:51:29;22.5;54
74458;SHT31;62896;51.032;3.712;2023-08-07T13:54:49;22.9;52
74458;SHT31;62896;51.032;3.712;2023-08-07T13:58:09;22.9;52
74458;SHT31;62896;51.032;3.712;2023-08-07T14:01:28;22.9;52
74458;SHT31;62896;51.032;3.712;2023-08-07T14:04:48;22.7;52
74458;SHT31;62896;51.032;3.712;2023-08-07T14:08:08;22.7;52
74458;SHT31;62896;51.032;3.712;2023-08-07T14:11:29;22.7;52
74458;SHT31;62896;51.032;3.712;2023-08-07T14:14:48;22.9;51
74458;SHT31;62896;51.032;3.712;2023-08-07T14:18:09;22.9;51
74458;SHT31;62896;51.032;3.712;2023-08-07T14:21:29;22.9;51
74458;SHT31;62896;51.032;3.712;2023-08-07T14:24:49;22.6;52
74458;SHT31;62896;51.032;3.712;2023-08-07T14:28:09;22.6;52
74458;SHT31;62896;51.032;3.712;2023-08-07T14:31:29;22.6;52
74458;SHT31;62896;51.032;3.712;2023-08-07T14:34:49;22.5;53
74458;SHT31;62896;51.032;3.712;2023-08-07T14:38:09;22.5;53
74458;SHT31;62896;51.032;3.712;2023-08-07T14:41:29;22.5;53
74458;SHT31;62896;51.032;3.712;2023-08-07T14:44:49;23.3;51
74458;SHT31;62896;51.032;3.712;2023-08-07T14:48:09;23.3;51
74458;SHT31;62896;51.032;3.712;2023-08-07T14:51:29;23.3;51
74458;SHT31;62896;51.032;3.712;2023-08-07T14:54:49;24.5;50
74458;SHT31;62896;51.032;3.712;2023-08-07T14:58:09;24.5;50
74458;SHT31;62896;51.032;3.712;2023-08-07T15:01:29;24.5;50
74458;SHT31;62896;51.032;3.712;2023-08-07T15:04:49;23.9;50
74458;SHT31;62896;51.032;3.712;2023-08-07T15:08:09;23.9;50
74458;SHT31;62896;51.032;3.712;2023-08-07T15:11:29;23.9;50
74458;SHT31;62896;51.032;3.712;2023-08-07T15:14:49;22.5;53
74458;SHT31;62896;51.032;3.712;2023-08-07T15:18:09;22.5;53
74458;SHT31;62896;51.032;3.712;2023-08-07T15:21:29;22.5;53
74458;SHT31;62896;51.032;3.712;2023-08-07T15:24:49;22.3;52
74458;SHT31;62896;51.032;3.712;2023-08-07T15:28:09;22.3;52
74458;SHT31;62896;51.032;3.712;2023-08-07T15:31:29;22.3;52
74458;SHT31;62896;51.032;3.712;2023-08-07T15:34:49;23.7;50
74458;SHT31;62896;51.032;3.712;2023-08-07T15:38:09;23.7;50
74458;SHT31;62896;51.032;3.712;2023-08-07T15:41:29;23.7;50
74458;SHT31;62896;51.032;3.712;2023-08-07T15:44:49;22.9;52
74458;SHT31;62896;51.032;3.712;2023-08-07T15:48:09;22.9;52
74458;SHT31;62896;51.032;3.712;2023-08-07T15:51:29;22.9;52
74458;SHT31;62896;51.032;3.712;2023-08-07T15:54:49;24;50
74458;SHT31;62896;51.032;3.712;2023-08-07T15:58:09;24;50
74458;SHT31;62896;51.032;3.712;2023-08-07T16:01:29;24;50
74458;SHT31;62896;51.032;3.712;2023-08-07T16:04:49;22.6;54
74458;SHT31;62896;51.032;3.712;2023-08-07T16:08:09;22.6;54
74458;SHT31;62896;51.032;3.712;2023-08-07T16:11:29;22.6;54
74458;SHT31;62896;51.032;3.712;2023-08-07T16:14:49;23.2;52
74458;SHT31;62896;51.032;3.712;2023-08-07T16:18:09;23.2;52
74458;SHT31;62896;51.032;3.712;2023-08-07T16:21:29;23.2;52
74458;SHT31;62896;51.032;3.712;2023-08-07T16:24:49;24.3;48
74458;SHT31;62896;51.032;3.712;2023-08-07T16:28:09;24.3;48
74458;SHT31;62896;51.032;3.712;2023-08-07T16:31:29;24.3;48
74458;SHT31;62896;51.032;3.712;2023-08-07T16:34:49;22;54
74458;SHT31;62896;51.032;3.712;2023-08-07T16:38:09;22;54
74458;SHT31;62896;51.032;3.712;2023-08-07T16:41:29;22;54
74458;SHT31;62896;51.032;3.712;2023-08-07T16:44:49;22;54
74458;SHT31;62896;51.032;3.712;2023-08-07T16:48:09;22;54
74458;SHT31;62896;51.032;3.712;2023-08-07T16:51:29;22;54
74458;SHT31;62896;51.032;3.712;2023-08-07T16:54:49;21.7;54
74458;SHT31;62896;51.032;3.712;2023-08-07T16:58:09;21.7;54
74458;SHT31;62896;51.032;3.712;2023-08-07T17:01:29;21.7;54
74458;SHT31;62896;51.032;3.712;2023-08-07T17:04:49;21.2;54
74458;SHT31;62896;51.032;3.712;2023-08-07T17:08:09;21.2;54
74458;SHT31;62896;51.032;3.712;2023-08-07T17:11:29;21.2;54
74458;SHT31;62896;51.032;3.712;2023-08-07T17:14:49;20.9;54
74458;SHT31;62896;51.032;3.712;2023-08-07T17:18:09;20.9;54
74458;SHT31;62896;51.032;3.712;2023-08-07T17:21:29;20.9;54
74458;SHT31;62896;51.032;3.712;2023-08-07T17:24:49;20.8;55
74458;SHT31;62896;51.032;3.712;2023-08-07T17:28:09;20.8;55
74458;SHT31;62896;51.032;3.712;2023-08-07T17:31:29;20.8;55
74458;SHT31;62896;51.032;3.712;2023-08-07T17:34:49;20.7;57
74458;SHT31;62896;51.032;3.712;2023-08-07T17:38:09;20.7;57
74458;SHT31;62896;51.032;3.712;2023-08-07T17:41:29;20.7;57
74458;SHT31;62896;51.032;3.712;2023-08-07T17:44:49;20.4;58
74458;SHT31;62896;51.032;3.712;2023-08-07T17:48:09;20.4;58
74458;SHT31;62896;51.032;3.712;2023-08-07T17:51:29;20.4;58
74458;SHT31;62896;51.032;3.712;2023-08-07T17:54:49;20.4;58
74458;SHT31;62896;51.032;3.712;2023-08-07T17:58:09;20.4;58
74458;SHT31;62896;51.032;3.712;2023-08-07T18:01:29;20.4;58
74458;SHT31;62896;51.032;3.712;2023-08-07T18:04:49;20.2;59
74458;SHT31;62896;51.032;3.712;2023-08-07T18:08:09;20.2;59
74458;SHT31;62896;51.032;3.712;2023-08-07T18:11:29;20.2;59
74458;SHT31;62896;51.032;3.712;2023-08-07T18:14:49;20.1;60
74458;SHT31;62896;51.032;3.712;2023-08-07T18:18:09;20.1;60
74458;SHT31;62896;51.032;3.712;2023-08-07T18:21:29;20.1;60
74458;SHT31;62896;51.032;3.712;2023-08-07T18:24:49;19.9;60
74458;SHT31;62896;51.032;3.712;2023-08-07T18:28:09;19.9;60
74458;SHT31;62896;51.032;3.712;2023-08-07T18:31:29;19.9;60
74458;SHT31;62896;51.032;3.712;2023-08-07T18:34:49;19.8;61
74458;SHT31;62896;51.032;3.712;2023-08-07T18:38:09;19.8;61
74458;SHT31;62896;51.032;3.712;2023-08-07T18:41:29;19.8;61
74458;SHT31;62896;51.032;3.712;2023-08-07T18:44:49;19.8;61
74458;SHT31;62896;51.032;3.712;2023-08-07T18:48:09;19.8;61
74458;SHT31;62896;51.032;3.712;2023-08-07T18:51:29;19.8;61
74458;SHT31;62896;51.032;3.712;2023-08-07T18:54:49;19.6;62
74458;SHT31;62896;51.032;3.712;2023-08-07T18:58:09;19.6;62
74458;SHT31;62896;51.032;3.712;2023-08-07T19:01:29;19.6;62
74458;SHT31;62896;51.032;3.712;2023-08-07T19:04:49;19.3;64
74458;SHT31;62896;51.032;3.712;2023-08-07T19:08:09;19.3;64
74458;SHT31;62896;51.032;3.712;2023-08-07T19:11:29;19.3;64
74458;SHT31;62896;51.032;3.712;2023-08-07T19:14:49;18.9;66
74458;SHT31;62896;51.032;3.712;2023-08-07T19:18:09;18.9;66
74458;SHT31;62896;51.032;3.712;2023-08-07T19:21:29;18.9;66
74458;SHT31;62896;51.032;3.712;2023-08-07T19:24:49;18.7;68
74458;SHT31;62896;51.032;3.712;2023-08-07T19:28:09;18.7;68
74458;SHT31;62896;51.032;3.712;2023-08-07T19:31:29;18.7;68
74458;SHT31;62896;51.032;3.712;2023-08-07T19:34:49;18.4;69
74458;SHT31;62896;51.032;3.712;2023-08-07T19:38:09;18.4;69
74458;SHT31;62896;51.032;3.712;2023-08-07T19:41:29;18.4;69
74458;SHT31;62896;51.032;3.712;2023-08-07T19:44:49;18.2;70
74458;SHT31;62896;51.032;3.712;2023-08-07T19:48:09;18.2;70
74458;SHT31;62896;51.032;3.712;2023-08-07T19:51:29;18.2;70
74458;SHT31;62896;51.032;3.712;2023-08-07T19:54:49;18;70
74458;SHT31;62896;51.032;3.712;2023-08-07T19:58:09;18;70
74458;SHT31;62896;51.032;3.712;2023-08-07T20:01:29;18;70
74458;SHT31;62896;51.032;3.712;2023-08-07T20:04:49;17.7;72
74458;SHT31;62896;51.032;3.712;2023-08-07T20:08:09;17.7;72
74458;SHT31;62896;51.032;3.712;2023-08-07T20:11:33;17.7;72
74458;SHT31;62896;51.032;3.712;2023-08-07T20:14:49;17.5;73
74458;SHT31;62896;51.032;3.712;2023-08-07T20:18:09;17.5;73
74458;SHT31;62896;51.032;3.712;2023-08-07T20:21:29;17.5;73
74458;SHT31;62896;51.032;3.712;2023-08-07T20:24:49;17.3;73
74458;SHT31;62896;51.032;3.712;2023-08-07T20:28:09;17.3;73
74458;SHT31;62896;51.032;3.712;2023-08-07T20:31:29;17.3;73
74458;SHT31;62896;51.032;3.712;2023-08-07T20:34:49;17.2;73
74458;SHT31;62896;51.032;3.712;2023-08-07T20:38:09;17.2;73
74458;SHT31;62896;51.032;3.712;2023-08-07T20:41:29;17.2;73
74458;SHT31;62896;51.032;3.712;2023-08-07T20:44:49;17;74
74458;SHT31;62896;51.032;3.712;2023-08-07T20:48:09;17;74
74458;SHT31;62896;51.032;3.712;2023-08-07T20:51:29;17;74
74458;SHT31;62896;51.032;3.712;2023-08-07T20:54:49;16.8;75
74458;SHT31;62896;51.032;3.712;2023-08-07T20:58:09;16.8;75
74458;SHT31;62896;51.032;3.712;2023-08-07T21:01:29;16.8;75
74458;SHT31;62896;51.032;3.712;2023-08-07T21:04:49;16.6;76
74458;SHT31;62896;51.032;3.712;2023-08-07T21:08:09;16.6;76
74458;SHT31;62896;51.032;3.712;2023-08-07T21:11:29;16.6;76
74458;SHT31;62896;51.032;3.712;2023-08-07T21:14:49;16.4;77
74458;SHT31;62896;51.032;3.712;2023-08-07T21:18:09;16.4;77
74458;SHT31;62896;51.032;3.712;2023-08-07T21:21:29;16.4;77
74458;SHT31;62896;51.032;3.712;2023-08-07T21:24:49;16.3;77
74458;SHT31;62896;51.032;3.712;2023-08-07T21:28:09;16.3;77
74458;SHT31;62896;51.032;3.712;2023-08-07T21:31:29;16.3;77
74458;SHT31;62896;51.032;3.712;2023-08-07T21:34:49;16.1;78
74458;SHT31;62896;51.032;3.712;2023-08-07T21:38:09;16.1;78
74458;SHT31;62896;51.032;3.712;2023-08-07T21:41:29;16.1;78
74458;SHT31;62896;51.032;3.712;2023-08-07T21:44:49;15.9;79
74458;SHT31;62896;51.032;3.712;2023-08-07T21:48:09;15.9;79
74458;SHT31;62896;51.032;3.712;2023-08-07T21:51:29;15.9;79
74458;SHT31;62896;51.032;3.712;2023-08-07T21:54:49;15.7;80
74458;SHT31;62896;51.032;3.712;2023-08-07T21:58:09;15.7;80
74458;SHT31;62896;51.032;3.712;2023-08-07T22:01:29;15.7;80
74458;SHT31;62896;51.032;3.712;2023-08-07T22:04:49;15.6;80
74458;SHT31;62896;51.032;3.712;2023-08-07T22:08:09;15.6;80
74458;SHT31;62896;51.032;3.712;2023-08-07T22:11:29;15.6;80
74458;SHT31;62896;51.032;3.712;2023-08-07T22:14:49;15.5;80
74458;SHT31;62896;51.032;3.712;2023-08-07T22:18:09;15.5;80
74458;SHT31;62896;51.032;3.712;2023-08-07T22:21:29;15.5;80
74458;SHT31;62896;51.032;3.712;2023-08-07T22:24:49;15.3;81
74458;SHT31;62896;51.032;3.712;2023-08-07T22:28:09;15.3;81
74458;SHT31;62896;51.032;3.712;2023-08-07T22:31:29;15.3;81
74458;SHT31;62896;51.032;3.712;2023-08-07T22:34:49;15.2;82